sensor_id;sensor_type;location;lat;lon;timestamp;P1;durP1;ratioP1;P2;durP2;ratioP2
16693;SDS011;39538;52.196;9.892;2022-08-19T00:01:17;318.07;;;302.17;;
16693;SDS011;39538;52.196;9.892;2022-08-19T00:03:43;317.53;;;301.80;;
16693;SDS011;39538;52.196;9.892;2022-08-19T00:06:10;301.87;;;286.70;;
16693;SDS011;39538;52.196;9.892;2022-08-19T00:08:36;314.90;;;298.83;;
16693;SDS011;39538;52.196;9.892;2022-08-19T00:11:03;311.10;;;295.03;;
16693;SDS011;39538;52.196;9.892;2022-08-19T00:13:29;310.07;;;294.47;;
16693;SDS011;39538;52.196;9.892;2022-08-19T00:15:57;316.67;;;300.57;;
16693;SDS011;39538;52.196;9.892;2022-08-19T00:18:24;318.30;;;302.57;;
16693;SDS011;39538;52.196;9.892;2022-08-19T00:20:51;314.80;;;299.20;;
16693;SDS011;39538;52.196;9.892;2022-08-19T00:23:17;313.23;;;297.10;;
16693;SDS011;39538;52.196;9.892;2022-08-19T00:25:44;322.37;;;305.63;;
16693;SDS011;39538;52.196;9.892;2022-08-19T00:28:11;314.97;;;299.40;;
16693;SDS011;39538;52.196;9.892;2022-08-19T00:30:37;317.50;;;301.70;;
16693;SDS011;39538;52.196;9.892;2022-08-19T00:33:05;313.53;;;298.13;;
16693;SDS011;39538;52.196;9.892;2022-08-19T00:35:32;313.60;;;297.87;;
16693;SDS011;39538;52.196;9.892;2022-08-19T00:37:58;309.63;;;294.47;;
16693;SDS011;39538;52.196;9.892;2022-08-19T00:40:25;312.00;;;296.67;;
16693;SDS011;39538;52.196;9.892;2022-08-19T00:42:52;312.90;;;297.87;;
16693;SDS011;39538;52.196;9.892;2022-08-19T00:45:20;318.60;;;302.50;;
16693;SDS011;39538;52.196;9.892;2022-08-19T00:47:48;313.40;;;297.87;;
16693;SDS011;39538;52.196;9.892;2022-08-19T00:50:16;327.80;;;311.23;;
16693;SDS011;39538;52.196;9.892;2022-08-19T00:52:46;330.93;;;314.60;;
16693;SDS011;39538;52.196;9.892;2022-08-19T00:55:16;317.03;;;302.03;;
16693;SDS011;39538;52.196;9.892;2022-08-19T00:57:46;322.73;;;307.00;;
16693;SDS011;39538;52.196;9.892;2022-08-19T01:00:16;315.73;;;300.53;;
16693;SDS011;39538;52.196;9.892;2022-08-19T01:02:44;318.73;;;303.30;;
16693;SDS011;39538;52.196;9.892;2022-08-19T01:05:12;320.67;;;305.30;;
16693;SDS011;39538;52.196;9.892;2022-08-19T01:07:44;317.73;;;302.53;;
16693;SDS011;39538;52.196;9.892;2022-08-19T01:10:12;318.47;;;303.27;;
16693;SDS011;39538;52.196;9.892;2022-08-19T01:12:40;313.63;;;298.43;;
16693;SDS011;39538;52.196;9.892;2022-08-19T01:15:08;323.70;;;307.93;;
16693;SDS011;39538;52.196;9.892;2022-08-19T01:17:36;320.63;;;305.43;;
16693;SDS011;39538;52.196;9.892;2022-08-19T01:20:05;328.70;;;313.13;;
16693;SDS011;39538;52.196;9.892;2022-08-19T01:22:37;333.10;;;316.90;;
16693;SDS011;39538;52.196;9.892;2022-08-19T01:25:08;326.77;;;311.17;;
16693;SDS011;39538;52.196;9.892;2022-08-19T01:27:38;322.83;;;307.17;;
16693;SDS011;39538;52.196;9.892;2022-08-19T01:30:06;327.23;;;311.10;;
16693;SDS011;39538;52.196;9.892;2022-08-19T01:32:33;327.23;;;311.57;;
16693;SDS011;39538;52.196;9.892;2022-08-19T01:35:00;343.63;;;326.30;;
16693;SDS011;39538;52.196;9.892;2022-08-19T01:37:28;357.53;;;339.60;;
16693;SDS011;39538;52.196;9.892;2022-08-19T01:39:57;338.13;;;321.60;;
16693;SDS011;39538;52.196;9.892;2022-08-19T01:42:23;343.87;;;327.30;;
16693;SDS011;39538;52.196;9.892;2022-08-19T01:44:49;345.83;;;329.00;;
16693;SDS011;39538;52.196;9.892;2022-08-19T01:47:16;352.60;;;335.27;;
16693;SDS011;39538;52.196;9.892;2022-08-19T01:49:42;346.70;;;329.70;;
16693;SDS011;39538;52.196;9.892;2022-08-19T01:52:09;342.00;;;324.63;;
16693;SDS011;39538;52.196;9.892;2022-08-19T01:54:35;335.17;;;319.53;;
16693;SDS011;39538;52.196;9.892;2022-08-19T01:57:03;336.83;;;320.60;;
16693;SDS011;39538;52.196;9.892;2022-08-19T01:59:32;315.77;;;300.70;;
16693;SDS011;39538;52.196;9.892;2022-08-19T02:02:01;327.77;;;312.53;;
16693;SDS011;39538;52.196;9.892;2022-08-19T02:04:29;331.70;;;316.27;;
16693;SDS011;39538;52.196;9.892;2022-08-19T02:06:56;344.63;;;328.37;;
16693;SDS011;39538;52.196;9.892;2022-08-19T02:09:23;330.10;;;314.57;;
16693;SDS011;39538;52.196;9.892;2022-08-19T02:11:49;331.40;;;316.07;;
16693;SDS011;39538;52.196;9.892;2022-08-19T02:14:17;332.77;;;317.53;;
16693;SDS011;39538;52.196;9.892;2022-08-19T02:16:44;348.63;;;331.93;;
16693;SDS011;39538;52.196;9.892;2022-08-19T02:19:10;325.73;;;310.50;;
16693;SDS011;39538;52.196;9.892;2022-08-19T02:21:37;330.13;;;314.50;;
16693;SDS011;39538;52.196;9.892;2022-08-19T02:24:03;334.40;;;319.03;;
16693;SDS011;39538;52.196;9.892;2022-08-19T02:26:31;338.20;;;322.50;;
16693;SDS011;39538;52.196;9.892;2022-08-19T02:28:58;343.53;;;326.97;;
16693;SDS011;39538;52.196;9.892;2022-08-19T02:31:26;332.63;;;316.43;;
16693;SDS011;39538;52.196;9.892;2022-08-19T02:33:54;322.53;;;307.37;;
16693;SDS011;39538;52.196;9.892;2022-08-19T02:36:21;339.67;;;323.83;;
16693;SDS011;39538;52.196;9.892;2022-08-19T02:38:47;339.23;;;323.27;;
16693;SDS011;39538;52.196;9.892;2022-08-19T02:41:14;338.63;;;322.40;;
16693;SDS011;39538;52.196;9.892;2022-08-19T02:43:42;341.37;;;325.57;;
16693;SDS011;39538;52.196;9.892;2022-08-19T02:46:12;344.43;;;328.33;;
16693;SDS011;39538;52.196;9.892;2022-08-19T02:48:43;339.40;;;323.70;;
16693;SDS011;39538;52.196;9.892;2022-08-19T02:51:15;340.23;;;324.30;;
16693;SDS011;39538;52.196;9.892;2022-08-19T02:53:43;341.17;;;324.43;;
16693;SDS011;39538;52.196;9.892;2022-08-19T02:56:09;334.93;;;319.27;;
16693;SDS011;39538;52.196;9.892;2022-08-19T02:58:36;333.97;;;317.70;;
16693;SDS011;39538;52.196;9.892;2022-08-19T03:01:02;335.40;;;319.77;;
16693;SDS011;39538;52.196;9.892;2022-08-19T03:03:29;341.53;;;325.20;;
16693;SDS011;39538;52.196;9.892;2022-08-19T03:06:05;339.07;;;322.90;;
16693;SDS011;39538;52.196;9.892;2022-08-19T03:08:33;329.77;;;314.07;;
16693;SDS011;39538;52.196;9.892;2022-08-19T03:11:00;329.23;;;314.00;;
16693;SDS011;39538;52.196;9.892;2022-08-19T03:13:26;349.43;;;332.93;;
16693;SDS011;39538;52.196;9.892;2022-08-19T03:15:53;329.80;;;314.27;;
16693;SDS011;39538;52.196;9.892;2022-08-19T03:18:19;337.20;;;320.63;;
16693;SDS011;39538;52.196;9.892;2022-08-19T03:20:47;334.27;;;318.43;;
16693;SDS011;39538;52.196;9.892;2022-08-19T03:23:16;341.10;;;325.30;;
16693;SDS011;39538;52.196;9.892;2022-08-19T03:25:44;342.43;;;326.27;;
16693;SDS011;39538;52.196;9.892;2022-08-19T03:28:13;335.67;;;319.50;;
16693;SDS011;39538;52.196;9.892;2022-08-19T03:30:41;332.90;;;317.33;;
16693;SDS011;39538;52.196;9.892;2022-08-19T03:33:09;335.23;;;319.73;;
16693;SDS011;39538;52.196;9.892;2022-08-19T03:35:36;319.57;;;304.47;;
16693;SDS011;39538;52.196;9.892;2022-08-19T03:38:03;334.50;;;318.23;;
16693;SDS011;39538;52.196;9.892;2022-08-19T03:40:31;332.30;;;316.47;;
16693;SDS011;39538;52.196;9.892;2022-08-19T03:42:59;343.07;;;326.73;;
16693;SDS011;39538;52.196;9.892;2022-08-19T03:45:26;322.70;;;307.17;;
16693;SDS011;39538;52.196;9.892;2022-08-19T03:47:52;329.90;;;314.27;;
16693;SDS011;39538;52.196;9.892;2022-08-19T03:50:19;335.37;;;319.33;;
16693;SDS011;39538;52.196;9.892;2022-08-19T03:52:47;329.50;;;313.47;;
16693;SDS011;39538;52.196;9.892;2022-08-19T03:55:15;334.90;;;318.00;;
16693;SDS011;39538;52.196;9.892;2022-08-19T03:57:43;312.17;;;297.33;;
16693;SDS011;39538;52.196;9.892;2022-08-19T04:00:11;324.50;;;308.80;;
16693;SDS011;39538;52.196;9.892;2022-08-19T04:02:38;308.57;;;292.97;;
16693;SDS011;39538;52.196;9.892;2022-08-19T04:05:05;303.30;;;288.37;;
16693;SDS011;39538;52.196;9.892;2022-08-19T04:07:33;303.00;;;288.67;;
16693;SDS011;39538;52.196;9.892;2022-08-19T04:09:59;310.33;;;295.20;;
16693;SDS011;39538;52.196;9.892;2022-08-19T04:12:26;302.20;;;287.67;;
16693;SDS011;39538;52.196;9.892;2022-08-19T04:14:54;312.90;;;297.50;;
16693;SDS011;39538;52.196;9.892;2022-08-19T04:17:20;317.47;;;301.57;;
16693;SDS011;39538;52.196;9.892;2022-08-19T04:19:47;313.20;;;297.87;;
16693;SDS011;39538;52.196;9.892;2022-08-19T04:22:13;320.60;;;305.33;;
16693;SDS011;39538;52.196;9.892;2022-08-19T04:24:40;298.47;;;283.87;;
16693;SDS011;39538;52.196;9.892;2022-08-19T04:27:06;316.97;;;300.77;;
16693;SDS011;39538;52.196;9.892;2022-08-19T04:29:33;323.53;;;307.90;;
16693;SDS011;39538;52.196;9.892;2022-08-19T04:32:01;325.87;;;309.83;;
16693;SDS011;39538;52.196;9.892;2022-08-19T04:34:28;308.27;;;293.37;;
16693;SDS011;39538;52.196;9.892;2022-08-19T04:36:56;307.27;;;292.40;;
16693;SDS011;39538;52.196;9.892;2022-08-19T04:39:25;307.43;;;292.13;;
16693;SDS011;39538;52.196;9.892;2022-08-19T04:42:14;309.30;;;294.13;;
16693;SDS011;39538;52.196;9.892;2022-08-19T04:44:59;300.87;;;285.87;;
16693;SDS011;39538;52.196;9.892;2022-08-19T04:47:27;295.10;;;280.90;;
16693;SDS011;39538;52.196;9.892;2022-08-19T04:49:53;325.53;;;309.60;;
16693;SDS011;39538;52.196;9.892;2022-08-19T04:52:19;311.20;;;295.80;;
16693;SDS011;39538;52.196;9.892;2022-08-19T04:54:46;318.77;;;303.07;;
16693;SDS011;39538;52.196;9.892;2022-08-19T04:57:13;313.63;;;298.00;;
16693;SDS011;39538;52.196;9.892;2022-08-19T04:59:40;313.87;;;298.60;;
16693;SDS011;39538;52.196;9.892;2022-08-19T05:02:07;297.73;;;283.47;;
16693;SDS011;39538;52.196;9.892;2022-08-19T05:04:36;307.23;;;292.53;;
16693;SDS011;39538;52.196;9.892;2022-08-19T05:07:04;291.03;;;276.60;;
16693;SDS011;39538;52.196;9.892;2022-08-19T05:09:30;306.93;;;291.80;;
16693;SDS011;39538;52.196;9.892;2022-08-19T05:11:57;310.60;;;295.43;;
16693;SDS011;39538;52.196;9.892;2022-08-19T05:14:23;315.33;;;300.00;;
16693;SDS011;39538;52.196;9.892;2022-08-19T05:16:49;314.40;;;298.77;;
16693;SDS011;39538;52.196;9.892;2022-08-19T05:19:16;293.87;;;279.17;;
16693;SDS011;39538;52.196;9.892;2022-08-19T05:22:02;308.70;;;293.80;;
16693;SDS011;39538;52.196;9.892;2022-08-19T05:24:46;294.80;;;280.30;;
16693;SDS011;39538;52.196;9.892;2022-08-19T05:27:12;306.37;;;291.10;;
16693;SDS011;39538;52.196;9.892;2022-08-19T05:29:39;301.80;;;286.93;;
16693;SDS011;39538;52.196;9.892;2022-08-19T05:32:05;320.03;;;304.10;;
16693;SDS011;39538;52.196;9.892;2022-08-19T05:34:33;308.60;;;293.07;;
16693;SDS011;39538;52.196;9.892;2022-08-19T05:37:02;311.10;;;295.27;;
16693;SDS011;39538;52.196;9.892;2022-08-19T05:39:30;315.73;;;300.40;;
16693;SDS011;39538;52.196;9.892;2022-08-19T05:41:59;326.20;;;310.43;;
16693;SDS011;39538;52.196;9.892;2022-08-19T05:44:27;318.33;;;302.77;;
16693;SDS011;39538;52.196;9.892;2022-08-19T05:46:56;319.20;;;303.40;;
16693;SDS011;39538;52.196;9.892;2022-08-19T05:49:23;324.17;;;308.37;;
16693;SDS011;39538;52.196;9.892;2022-08-19T05:51:50;321.03;;;305.67;;
16693;SDS011;39538;52.196;9.892;2022-08-19T05:54:18;334.90;;;318.47;;
16693;SDS011;39538;52.196;9.892;2022-08-19T05:56:45;331.23;;;314.53;;
16693;SDS011;39538;52.196;9.892;2022-08-19T05:59:13;344.73;;;327.93;;
16693;SDS011;39538;52.196;9.892;2022-08-19T06:01:41;350.07;;;332.70;;
16693;SDS011;39538;52.196;9.892;2022-08-19T06:04:10;340.77;;;324.20;;
16693;SDS011;39538;52.196;9.892;2022-08-19T06:06:39;334.33;;;318.10;;
16693;SDS011;39538;52.196;9.892;2022-08-19T06:09:06;344.30;;;328.03;;
16693;SDS011;39538;52.196;9.892;2022-08-19T06:11:36;335.63;;;319.87;;
16693;SDS011;39538;52.196;9.892;2022-08-19T06:14:06;330.10;;;314.53;;
16693;SDS011;39538;52.196;9.892;2022-08-19T06:16:35;332.40;;;315.93;;
16693;SDS011;39538;52.196;9.892;2022-08-19T06:19:04;325.23;;;309.33;;
16693;SDS011;39538;52.196;9.892;2022-08-19T06:21:33;329.60;;;314.20;;
16693;SDS011;39538;52.196;9.892;2022-08-19T06:24:02;325.63;;;309.93;;
16693;SDS011;39538;52.196;9.892;2022-08-19T06:26:30;337.60;;;321.63;;
16693;SDS011;39538;52.196;9.892;2022-08-19T06:28:58;332.27;;;316.43;;
16693;SDS011;39538;52.196;9.892;2022-08-19T06:31:26;330.30;;;314.33;;
16693;SDS011;39538;52.196;9.892;2022-08-19T06:33:53;319.67;;;304.27;;
16693;SDS011;39538;52.196;9.892;2022-08-19T06:36:21;336.70;;;320.47;;
16693;SDS011;39538;52.196;9.892;2022-08-19T06:38:52;341.80;;;324.83;;
16693;SDS011;39538;52.196;9.892;2022-08-19T06:41:18;330.80;;;314.17;;
16693;SDS011;39538;52.196;9.892;2022-08-19T06:43:45;353.87;;;335.50;;
16693;SDS011;39538;52.196;9.892;2022-08-19T06:46:13;349.40;;;332.07;;
16693;SDS011;39538;52.196;9.892;2022-08-19T06:48:42;344.10;;;326.37;;
16693;SDS011;39538;52.196;9.892;2022-08-19T06:51:09;343.23;;;326.13;;
16693;SDS011;39538;52.196;9.892;2022-08-19T06:53:35;354.13;;;335.97;;
16693;SDS011;39538;52.196;9.892;2022-08-19T06:56:02;346.80;;;329.77;;
16693;SDS011;39538;52.196;9.892;2022-08-19T06:58:28;333.83;;;318.13;;
16693;SDS011;39538;52.196;9.892;2022-08-19T07:00:57;337.50;;;321.23;;
16693;SDS011;39538;52.196;9.892;2022-08-19T07:03:27;352.27;;;334.40;;
16693;SDS011;39538;52.196;9.892;2022-08-19T07:05:55;364.57;;;346.17;;
16693;SDS011;39538;52.196;9.892;2022-08-19T07:08:22;367.87;;;348.57;;
16693;SDS011;39538;52.196;9.892;2022-08-19T07:10:49;370.10;;;350.87;;
16693;SDS011;39538;52.196;9.892;2022-08-19T07:13:15;367.73;;;348.07;;
16693;SDS011;39538;52.196;9.892;2022-08-19T07:15:42;361.70;;;342.47;;
16693;SDS011;39538;52.196;9.892;2022-08-19T07:18:11;348.60;;;329.53;;
16693;SDS011;39538;52.196;9.892;2022-08-19T07:20:39;325.53;;;308.90;;
16693;SDS011;39538;52.196;9.892;2022-08-19T07:23:06;310.97;;;295.43;;
16693;SDS011;39538;52.196;9.892;2022-08-19T07:25:33;323.00;;;306.53;;
16693;SDS011;39538;52.196;9.892;2022-08-19T07:28:01;312.77;;;296.83;;
16693;SDS011;39538;52.196;9.892;2022-08-19T07:30:28;318.70;;;302.37;;
16693;SDS011;39538;52.196;9.892;2022-08-19T07:32:55;315.87;;;300.07;;
16693;SDS011;39538;52.196;9.892;2022-08-19T07:35:22;329.10;;;312.30;;
16693;SDS011;39538;52.196;9.892;2022-08-19T07:37:51;322.83;;;306.67;;
16693;SDS011;39538;52.196;9.892;2022-08-19T07:40:17;330.83;;;314.20;;
16693;SDS011;39538;52.196;9.892;2022-08-19T07:42:44;330.70;;;314.30;;
16693;SDS011;39538;52.196;9.892;2022-08-19T07:45:10;341.77;;;324.80;;
16693;SDS011;39538;52.196;9.892;2022-08-19T07:47:37;332.50;;;315.70;;
16693;SDS011;39538;52.196;9.892;2022-08-19T07:50:06;341.03;;;323.97;;
16693;SDS011;39538;52.196;9.892;2022-08-19T07:52:36;314.70;;;299.00;;
16693;SDS011;39538;52.196;9.892;2022-08-19T07:55:06;322.00;;;305.40;;
16693;SDS011;39538;52.196;9.892;2022-08-19T07:57:34;338.77;;;321.70;;
16693;SDS011;39538;52.196;9.892;2022-08-19T08:00:02;338.70;;;322.20;;
16693;SDS011;39538;52.196;9.892;2022-08-19T08:02:29;312.60;;;296.97;;
16693;SDS011;39538;52.196;9.892;2022-08-19T08:04:56;288.50;;;274.17;;
16693;SDS011;39538;52.196;9.892;2022-08-19T08:07:40;308.73;;;292.50;;
16693;SDS011;39538;52.196;9.892;2022-08-19T08:10:25;306.80;;;291.50;;
16693;SDS011;39538;52.196;9.892;2022-08-19T08:12:52;286.63;;;272.33;;
16693;SDS011;39538;52.196;9.892;2022-08-19T08:15:20;300.63;;;285.63;;
16693;SDS011;39538;52.196;9.892;2022-08-19T08:17:47;296.03;;;280.60;;
16693;SDS011;39538;52.196;9.892;2022-08-19T08:20:14;284.70;;;270.13;;
16693;SDS011;39538;52.196;9.892;2022-08-19T08:22:42;273.07;;;258.73;;
16693;SDS011;39538;52.196;9.892;2022-08-19T08:25:28;276.13;;;261.83;;
16693;SDS011;39538;52.196;9.892;2022-08-19T08:27:56;271.57;;;257.73;;
16693;SDS011;39538;52.196;9.892;2022-08-19T08:30:25;255.10;;;242.30;;
16693;SDS011;39538;52.196;9.892;2022-08-19T08:32:53;229.90;;;216.97;;
16693;SDS011;39538;52.196;9.892;2022-08-19T08:35:20;239.57;;;226.70;;
16693;SDS011;39538;52.196;9.892;2022-08-19T08:37:51;226.73;;;215.60;;
16693;SDS011;39538;52.196;9.892;2022-08-19T08:40:20;199.73;;;189.68;;
16693;SDS011;39538;52.196;9.892;2022-08-19T08:42:53;162.82;;;154.38;;
16693;SDS011;39538;52.196;9.892;2022-08-19T08:45:25;157.77;;;149.83;;
16693;SDS011;39538;52.196;9.892;2022-08-19T08:47:55;152.77;;;144.48;;
16693;SDS011;39538;52.196;9.892;2022-08-19T08:50:29;160.60;;;152.50;;
16693;SDS011;39538;52.196;9.892;2022-08-19T08:53:02;169.82;;;161.38;;
16693;SDS011;39538;52.196;9.892;2022-08-19T08:55:30;146.32;;;139.27;;
16693;SDS011;39538;52.196;9.892;2022-08-19T08:58:00;147.80;;;140.70;;
16693;SDS011;39538;52.196;9.892;2022-08-19T09:00:31;131.95;;;125.43;;
16693;SDS011;39538;52.196;9.892;2022-08-19T09:03:16;139.75;;;132.55;;
16693;SDS011;39538;52.196;9.892;2022-08-19T09:05:49;140.88;;;134.02;;
16693;SDS011;39538;52.196;9.892;2022-08-19T09:08:25;139.07;;;132.63;;
16693;SDS011;39538;52.196;9.892;2022-08-19T09:10:58;141.10;;;134.15;;
16693;SDS011;39538;52.196;9.892;2022-08-19T09:16:49;164.07;;;156.50;;
16693;SDS011;39538;52.196;9.892;2022-08-19T09:26:24;91.38;;;87.85;;
16693;SDS011;39538;52.196;9.892;2022-08-19T09:28:51;86.68;;;83.35;;
16693;SDS011;39538;52.196;9.892;2022-08-19T09:31:20;103.53;;;99.40;;
16693;SDS011;39538;52.196;9.892;2022-08-19T09:33:59;83.00;;;79.97;;
16693;SDS011;39538;52.196;9.892;2022-08-19T09:36:29;84.00;;;80.75;;
16693;SDS011;39538;52.196;9.892;2022-08-19T09:39:06;87.05;;;84.15;;
16693;SDS011;39538;52.196;9.892;2022-08-19T09:41:34;85.82;;;83.15;;
16693;SDS011;39538;52.196;9.892;2022-08-19T09:44:01;90.85;;;87.93;;
16693;SDS011;39538;52.196;9.892;2022-08-19T09:46:28;90.03;;;87.00;;
16693;SDS011;39538;52.196;9.892;2022-08-19T09:48:57;131.95;;;126.88;;
16693;SDS011;39538;52.196;9.892;2022-08-19T09:51:26;94.07;;;90.50;;
16693;SDS011;39538;52.196;9.892;2022-08-19T09:53:55;104.00;;;100.28;;
16693;SDS011;39538;52.196;9.892;2022-08-19T09:56:25;98.05;;;94.00;;
16693;SDS011;39538;52.196;9.892;2022-08-19T09:58:52;103.15;;;99.53;;
16693;SDS011;39538;52.196;9.892;2022-08-19T10:01:20;92.85;;;89.47;;
16693;SDS011;39538;52.196;9.892;2022-08-19T10:03:49;86.88;;;83.88;;
16693;SDS011;39538;52.196;9.892;2022-08-19T10:06:20;91.45;;;88.13;;
16693;SDS011;39538;52.196;9.892;2022-08-19T10:08:48;81.93;;;79.20;;
16693;SDS011;39538;52.196;9.892;2022-08-19T10:11:48;83.90;;;80.93;;
16693;SDS011;39538;52.196;9.892;2022-08-19T10:14:15;96.95;;;93.70;;
16693;SDS011;39538;52.196;9.892;2022-08-19T10:16:41;100.82;;;97.28;;
16693;SDS011;39538;52.196;9.892;2022-08-19T10:19:08;89.43;;;86.45;;
16693;SDS011;39538;52.196;9.892;2022-08-19T10:21:36;112.10;;;108.35;;
16693;SDS011;39538;52.196;9.892;2022-08-19T10:24:04;114.45;;;110.35;;
16693;SDS011;39538;52.196;9.892;2022-08-19T10:26:32;122.22;;;117.38;;
16693;SDS011;39538;52.196;9.892;2022-08-19T10:29:01;123.25;;;118.75;;
16693;SDS011;39538;52.196;9.892;2022-08-19T10:31:30;121.15;;;116.35;;
16693;SDS011;39538;52.196;9.892;2022-08-19T10:33:59;132.18;;;127.28;;
16693;SDS011;39538;52.196;9.892;2022-08-19T10:36:27;127.85;;;123.15;;
16693;SDS011;39538;52.196;9.892;2022-08-19T10:38:57;123.20;;;118.53;;
16693;SDS011;39538;52.196;9.892;2022-08-19T10:41:27;116.00;;;112.03;;
16693;SDS011;39538;52.196;9.892;2022-08-19T10:43:56;121.00;;;116.65;;
16693;SDS011;39538;52.196;9.892;2022-08-19T10:46:24;133.18;;;128.02;;
16693;SDS011;39538;52.196;9.892;2022-08-19T10:48:53;125.65;;;120.85;;
16693;SDS011;39538;52.196;9.892;2022-08-19T10:51:20;119.40;;;115.10;;
16693;SDS011;39538;52.196;9.892;2022-08-19T10:54:06;104.00;;;100.22;;
16693;SDS011;39538;52.196;9.892;2022-08-19T10:56:33;107.28;;;103.30;;
16693;SDS011;39538;52.196;9.892;2022-08-19T10:59:18;113.13;;;108.85;;
16693;SDS011;39538;52.196;9.892;2022-08-19T11:01:46;114.15;;;110.28;;
16693;SDS011;39538;52.196;9.892;2022-08-19T11:04:14;105.70;;;101.57;;
16693;SDS011;39538;52.196;9.892;2022-08-19T11:06:42;112.00;;;107.78;;
16693;SDS011;39538;52.196;9.892;2022-08-19T11:09:11;107.78;;;104.00;;
16693;SDS011;39538;52.196;9.892;2022-08-19T11:11:38;96.35;;;93.20;;
16693;SDS011;39538;52.196;9.892;2022-08-19T11:14:05;115.25;;;111.05;;
16693;SDS011;39538;52.196;9.892;2022-08-19T11:16:32;120.22;;;115.63;;
16693;SDS011;39538;52.196;9.892;2022-08-19T11:18:59;119.22;;;114.68;;
16693;SDS011;39538;52.196;9.892;2022-08-19T11:21:27;126.75;;;121.82;;
16693;SDS011;39538;52.196;9.892;2022-08-19T11:23:57;107.65;;;103.95;;
16693;SDS011;39538;52.196;9.892;2022-08-19T11:26:28;131.15;;;126.20;;
16693;SDS011;39538;52.196;9.892;2022-08-19T11:28:56;170.45;;;163.30;;
16693;SDS011;39538;52.196;9.892;2022-08-19T11:31:24;114.68;;;110.22;;
16693;SDS011;39538;52.196;9.892;2022-08-19T11:33:52;129.30;;;124.00;;
16693;SDS011;39538;52.196;9.892;2022-08-19T11:36:19;129.30;;;124.18;;
16693;SDS011;39538;52.196;9.892;2022-08-19T11:38:47;131.65;;;125.80;;
16693;SDS011;39538;52.196;9.892;2022-08-19T11:41:14;126.28;;;121.40;;
16693;SDS011;39538;52.196;9.892;2022-08-19T11:43:43;183.05;;;175.50;;
16693;SDS011;39538;52.196;9.892;2022-08-19T11:46:11;132.70;;;127.28;;
16693;SDS011;39538;52.196;9.892;2022-08-19T11:48:39;127.60;;;122.57;;
16693;SDS011;39538;52.196;9.892;2022-08-19T11:51:07;136.13;;;130.35;;
16693;SDS011;39538;52.196;9.892;2022-08-19T11:53:36;146.60;;;140.27;;
16693;SDS011;39538;52.196;9.892;2022-08-19T11:56:03;145.10;;;139.20;;
16693;SDS011;39538;52.196;9.892;2022-08-19T11:58:31;142.43;;;136.35;;
16693;SDS011;39538;52.196;9.892;2022-08-19T12:01:00;155.27;;;148.70;;
16693;SDS011;39538;52.196;9.892;2022-08-19T12:03:26;172.10;;;164.77;;
16693;SDS011;39538;52.196;9.892;2022-08-19T12:05:53;185.32;;;177.27;;
16693;SDS011;39538;52.196;9.892;2022-08-19T12:08:20;173.77;;;166.15;;
16693;SDS011;39538;52.196;9.892;2022-08-19T12:10:46;175.38;;;167.48;;
16693;SDS011;39538;52.196;9.892;2022-08-19T12:13:13;156.80;;;150.05;;
16693;SDS011;39538;52.196;9.892;2022-08-19T12:15:44;170.00;;;162.35;;
16693;SDS011;39538;52.196;9.892;2022-08-19T12:18:14;173.55;;;166.15;;
16693;SDS011;39538;52.196;9.892;2022-08-19T12:20:41;182.82;;;174.77;;
16693;SDS011;39538;52.196;9.892;2022-08-19T12:23:08;194.93;;;186.40;;
16693;SDS011;39538;52.196;9.892;2022-08-19T12:25:36;232.40;;;221.95;;
16693;SDS011;39538;52.196;9.892;2022-08-19T12:28:03;159.35;;;152.63;;
16693;SDS011;39538;52.196;9.892;2022-08-19T12:30:29;143.25;;;137.27;;
16693;SDS011;39538;52.196;9.892;2022-08-19T12:32:56;155.68;;;149.20;;
16693;SDS011;39538;52.196;9.892;2022-08-19T12:35:24;134.40;;;128.98;;
16693;SDS011;39538;52.196;9.892;2022-08-19T12:37:50;129.65;;;124.05;;
16693;SDS011;39538;52.196;9.892;2022-08-19T12:40:17;124.65;;;119.43;;
16693;SDS011;39538;52.196;9.892;2022-08-19T12:42:44;127.60;;;122.57;;
16693;SDS011;39538;52.196;9.892;2022-08-19T12:45:12;125.57;;;120.35;;
16693;SDS011;39538;52.196;9.892;2022-08-19T12:47:39;122.95;;;118.00;;
16693;SDS011;39538;52.196;9.892;2022-08-19T12:50:06;122.03;;;117.10;;
16693;SDS011;39538;52.196;9.892;2022-08-19T12:52:35;115.03;;;110.53;;
16693;SDS011;39538;52.196;9.892;2022-08-19T12:55:03;111.32;;;106.85;;
16693;SDS011;39538;52.196;9.892;2022-08-19T12:57:33;104.40;;;100.15;;
16693;SDS011;39538;52.196;9.892;2022-08-19T13:00:03;95.57;;;91.85;;
16693;SDS011;39538;52.196;9.892;2022-08-19T13:02:35;106.60;;;102.70;;
16693;SDS011;39538;52.196;9.892;2022-08-19T13:05:02;90.85;;;87.75;;
16693;SDS011;39538;52.196;9.892;2022-08-19T13:07:31;123.65;;;118.53;;
16693;SDS011;39538;52.196;9.892;2022-08-19T13:09:59;99.00;;;95.20;;
16693;SDS011;39538;52.196;9.892;2022-08-19T13:12:25;86.22;;;82.97;;
16693;SDS011;39538;52.196;9.892;2022-08-19T13:14:52;85.38;;;82.47;;
16693;SDS011;39538;52.196;9.892;2022-08-19T13:17:19;75.13;;;72.55;;
16693;SDS011;39538;52.196;9.892;2022-08-19T13:19:45;64.43;;;62.35;;
16693;SDS011;39538;52.196;9.892;2022-08-19T13:22:12;70.70;;;68.70;;
16693;SDS011;39538;52.196;9.892;2022-08-19T13:24:38;64.93;;;63.03;;
16693;SDS011;39538;52.196;9.892;2022-08-19T13:27:06;63.83;;;62.03;;
16693;SDS011;39538;52.196;9.892;2022-08-19T13:29:33;57.03;;;54.92;;
16693;SDS011;39538;52.196;9.892;2022-08-19T13:32:17;50.15;;;48.90;;
16693;SDS011;39538;52.196;9.892;2022-08-19T13:35:00;47.75;;;46.58;;
16693;SDS011;39538;52.196;9.892;2022-08-19T13:37:27;47.55;;;46.25;;
16693;SDS011;39538;52.196;9.892;2022-08-19T13:40:08;40.63;;;39.60;;
16693;SDS011;39538;52.196;9.892;2022-08-19T13:42:39;40.08;;;39.10;;
16693;SDS011;39538;52.196;9.892;2022-08-19T13:45:06;48.50;;;46.22;;
16693;SDS011;39538;52.196;9.892;2022-08-19T13:47:33;40.40;;;39.35;;
16693;SDS011;39538;52.196;9.892;2022-08-19T13:50:06;38.80;;;37.72;;
16693;SDS011;39538;52.196;9.892;2022-08-19T13:52:33;41.00;;;40.03;;
16693;SDS011;39538;52.196;9.892;2022-08-19T13:54:59;39.95;;;38.75;;
16693;SDS011;39538;52.196;9.892;2022-08-19T13:57:25;37.72;;;36.70;;
16693;SDS011;39538;52.196;9.892;2022-08-19T13:59:53;35.28;;;33.90;;
16693;SDS011;39538;52.196;9.892;2022-08-19T14:02:20;37.75;;;36.85;;
16693;SDS011;39538;52.196;9.892;2022-08-19T14:04:46;39.90;;;38.90;;
16693;SDS011;39538;52.196;9.892;2022-08-19T14:07:12;38.15;;;37.22;;
16693;SDS011;39538;52.196;9.892;2022-08-19T14:09:39;35.20;;;34.30;;
16693;SDS011;39538;52.196;9.892;2022-08-19T14:12:05;36.58;;;35.72;;
16693;SDS011;39538;52.196;9.892;2022-08-19T14:14:35;37.38;;;36.30;;
16693;SDS011;39538;52.196;9.892;2022-08-19T14:17:06;36.10;;;35.20;;
16693;SDS011;39538;52.196;9.892;2022-08-19T14:19:34;36.67;;;35.75;;